EST,Max TemperatureF,Mean TemperatureF,Min TemperatureF,Max Dew PointF,MeanDew PointF,Min DewpointF,Max Humidity, Mean Humidity, Min Humidity, Max Sea Level PressureIn, Mean Sea Level PressureIn, Min Sea Level PressureIn, Max VisibilityMiles, Mean VisibilityMiles, Min VisibilityMiles, Max Wind SpeedMPH, Mean Wind SpeedMPH, Max Gust SpeedMPH,PrecipitationIn, CloudCover, Events, WindDirDegrees
2013-11-1,64,56,50,56,46,40,83,73,62,29.68,29.50,29.20,10,10,9,30,21,53,0.22,7,Rain,231
2013-11-2,50,44,39,46,42,34,93,86,66,30.03,29.74,29.62,10,7,1,13,7,23,0.74,8,Rain,290
2013-11-3,39,34,28,34,28,20,93,78,55,30.54,30.30,30.04,10,9,4,12,6,21,0.11,6,Rain-Snow,58
2013-11-4,42,33,24,22,18,14,88,54,35,30.63,30.54,30.42,10,10,10,17,3,22,0.00,0,,127
2013-11-5,55,47,39,30,27,18,49,43,38,30.45,30.40,30.31,10,10,10,20,17,32,0.00,2,,183
2013-11-6,68,59,50,55,43,27,94,61,39,30.28,30.01,29.85,10,10,5,25,17,38,0.28,5,Rain,206
2013-11-7,55,46,37,53,35,23,93,75,49,30.06,29.98,29.83,10,10,4,21,15,32,0.31,8,Rain,280
2013-11-8,42,40,39,31,28,24,70,61,49,30.26,30.16,30.02,10,10,10,18,14,32,0.00,8,Rain,288
2013-11-9,53,45,37,42,29,25,74,55,36,30.25,30.02,29.83,10,10,10,22,13,38,0.00,6,Rain,200
2013-11-10,51,46,42,41,33,29,71,61,56,30.23,30.02,29.83,10,10,10,24,16,40,0.02,8,Rain,277
2013-11-11,46,38,28,37,30,23,96,79,47,30.21,30.09,29.97,10,6,0,23,13,36,0.50,8,Fog-Rain-Snow,282
2013-11-12,33,30,28,21,18,16,69,62,54,30.45,30.36,30.18,10,10,9,17,12,29,0.00,6,Snow,329
2013-11-13,37,32,28,25,21,14,80,61,44,30.45,30.37,30.18,10,10,7,22,13,30,0.00,5,Snow,262
2013-11-14,50,42,35,19,16,11,50,37,23,30.19,30.13,30.07,10,10,10,22,17,33,0.00,0,,212
2013-11-15,54,48,41,33,22,17,65,41,26,30.14,30.10,30.07,10,10,10,18,13,25,0.00,0,,206
2013-11-16,59,51,43,43,36,26,65,55,46,30.25,30.13,29.96,10,10,10,22,10,34,0.00,1,,185
2013-11-17,64,58,52,54,50,43,89,71,60,29.94,29.70,29.38,10,10,10,36,22,55,0.47,6,Rain,190
2013-11-18,53,45,37,41,34,24,71,65,55,30.01,29.70,29.47,10,10,10,36,25,51,0.01,8,Rain,249
2013-11-19,37,32,27,27,23,20,85,65,50,30.47,30.26,30.03,10,10,10,18,13,30,0.00,7,,310
2013-11-20,48,36,23,23,16,8,85,51,23,30.54,30.46,30.37,10,10,10,20,7,32,0.00,1,,108
2013-11-21,45,42,39,38,26,8,76,57,28,30.40,30.35,30.24,10,10,10,21,15,34,0.00,5,Rain,182
2013-11-22,48,42,34,46,40,26,100,87,70,30.25,30.14,30.05,10,7,0,20,10,30,0.13,8,Fog-Rain,240
2013-11-23,36,28,19,27,19,6,86,64,51,30.30,30.19,30.08,10,8,1,26,14,41,0.00,8,Snow,292
2013-11-24,25,22,18,11,7,2,63,54,46,30.48,30.42,30.31,10,10,9,22,15,30,0.00,6,Snow,305
2013-11-25,34,28,21,23,12,5,75,54,31,30.42,30.28,30.15,10,10,8,20,14,32,0.00,5,Snow,200
2013-11-26,36,34,32,31,28,21,96,84,61,30.15,30.00,29.82,10,4,0,18,8,24,0.36,8,Fog-Snow,198
2013-11-27,34,30,26,31,25,14,96,78,60,30.02,29.79,29.72,10,6,1,22,12,33,0.11,8,Snow,322
2013-11-28,28,26,24,25,19,11,93,78,57,30.42,30.30,30.06,10,4,0,18,9,29,0.08,7,Fog-Snow,237
2013-11-29,27,18,9,23,19,5,96,84,60,30.74,30.53,30.38,10,5,0,13,6,21,0.05,6,Fog-Snow,123
2013-11-30,35,28,21,23,17,12,71,61,50,30.68,30.42,30.20,10,10,10,21,12,32,0.00,2,,174